Time;durP1;ratioP1;P1;durP2;ratioP2;P2;SDS_P1;SDS_P2;PMS_P1;PMS_P2;Temp;Humidity;BMP_temperature;BMP_pressure;BME280_temperature;BME280_humidity;BME280_pressure;Samples;Min_cycle;Max_cycle;Signal;HPM_P1;HPM_P2
2021/07/08 00:00:21;;;;;;;;;3.00;2.67;;;;;25.73;49.56;98839.06;4920616;28;102600;-82
2021/07/08 00:02:48;;;;;;;;;3.00;3.00;;;;;25.72;49.64;98845.72;4900631;28;108970;-83
2021/07/08 00:05:18;;;;;;;;;3.33;3.00;;;;;25.73;49.56;98852.06;4897425;28;103367;-83
2021/07/08 00:07:45;;;;;;;;;3.00;3.00;;;;;25.72;49.65;98844.88;4891337;28;102722;-83
2021/07/08 00:10:16;;;;;;;;;3.33;3.33;;;;;25.72;49.59;98861.50;4923735;28;102571;-83
2021/07/08 00:12:43;;;;;;;;;4.00;3.00;;;;;25.71;49.50;98849.59;4901642;28;104372;-82
2021/07/08 00:15:17;;;;;;;;;4.00;4.00;;;;;25.70;49.33;98855.44;4908032;28;102748;-82
2021/07/08 00:17:44;;;;;;;;;3.67;3.67;;;;;25.69;49.55;98860.16;4927973;28;102641;-83
2021/07/08 00:20:16;;;;;;;;;4.33;3.33;;;;;25.68;49.45;98854.91;4913963;28;102864;-83
2021/07/08 00:22:43;;;;;;;;;3.00;3.00;;;;;25.68;49.53;98869.56;4901200;28;104154;-82
2021/07/08 00:25:13;;;;;;;;;1.33;1.33;;;;;25.67;49.60;98865.16;4921248;28;102596;-83
2021/07/08 00:27:41;;;;;;;;;3.67;3.00;;;;;25.68;49.63;98871.53;4911209;28;102420;-83
2021/07/08 00:30:09;;;;;;;;;3.00;3.00;;;;;25.68;49.52;98880.66;4918144;28;102609;-83
2021/07/08 00:32:36;;;;;;;;;3.33;3.00;;;;;25.68;49.54;98869.56;4924419;28;104643;-83
2021/07/08 00:35:04;;;;;;;;;4.00;4.00;;;;;25.68;49.40;98874.28;4916450;28;102497;-82
2021/07/08 00:37:31;;;;;;;;;3.00;2.00;;;;;25.69;49.46;98870.41;4909931;28;102693;-82
2021/07/08 00:39:59;;;;;;;;;4.00;3.33;;;;;25.68;49.50;98874.28;4914034;28;102394;-82
2021/07/08 00:42:26;;;;;;;;;3.00;2.67;;;;;25.67;49.53;98873.47;4915730;28;104387;-83
2021/07/08 00:44:53;;;;;;;;;4.00;3.33;;;;;25.66;49.31;98874.59;4915326;28;102585;-82
2021/07/08 00:47:20;;;;;;;;;2.00;1.33;;;;;25.66;49.25;98873.78;4917851;28;102545;-82
2021/07/08 00:49:47;;;;;;;;;2.00;2.00;;;;;25.64;49.47;98879.59;4913767;28;102351;-82
2021/07/08 00:52:14;;;;;;;;;3.00;3.00;;;;;25.62;49.58;98869.94;4908167;28;104422;-83
2021/07/08 00:54:42;;;;;;;;;3.33;3.00;;;;;25.64;49.30;98876.81;4925735;28;102435;-83
2021/07/08 00:57:09;;;;;;;;;4.00;3.67;;;;;25.64;49.21;98871.28;4915280;28;104316;-82
2021/07/08 00:59:46;;;;;;;;;4.00;3.00;;;;;25.64;49.24;98865.75;4901174;28;102568;-82
2021/07/08 01:02:13;;;;;;;;;3.00;3.00;;;;;25.63;49.51;98866.84;4901565;28;104109;-83
2021/07/08 01:04:44;;;;;;;;;3.33;3.33;;;;;25.63;49.41;98863.25;4886913;28;102244;-82
2021/07/08 01:07:15;;;;;;;;;3.67;3.67;;;;;25.61;49.29;98865.50;4891611;28;102924;-82
2021/07/08 01:09:42;;;;;;;;;2.00;2.00;;;;;25.61;49.33;98865.50;4893613;28;102523;-83
2021/07/08 01:12:10;;;;;;;;;3.00;3.00;;;;;25.60;49.38;98861.09;4921450;28;104268;-83
2021/07/08 01:14:37;;;;;;;;;5.00;4.00;;;;;25.60;49.32;98864.69;4911512;28;103271;-82
2021/07/08 01:17:05;;;;;;;;;3.33;3.33;;;;;25.60;49.32;98864.69;4908237;28;102525;-82
2021/07/08 01:19:35;;;;;;;;;4.00;3.00;;;;;25.60;49.19;98856.38;4922607;28;102700;-82
2021/07/08 01:22:03;;;;;;;;;2.00;2.00;;;;;25.58;49.44;98872.44;4906414;28;104160;-83
2021/07/08 01:24:34;;;;;;;;;3.00;2.67;;;;;25.59;49.12;98867.72;4908981;28;102494;-82
2021/07/08 01:27:01;;;;;;;;;2.67;2.00;;;;;25.58;49.12;98872.44;4914698;28;102624;-82
2021/07/08 01:29:29;;;;;;;;;4.00;4.00;;;;;25.58;49.32;98866.06;4914458;28;102638;-82
2021/07/08 01:31:56;;;;;;;;;3.00;3.00;;;;;25.58;48.99;98868.84;4908628;28;103078;-82
2021/07/08 01:34:30;;;;;;;;;3.00;2.00;;;;;25.58;49.05;98874.38;4910531;28;105380;-82
2021/07/08 01:36:57;;;;;;;;;3.00;3.00;;;;;25.55;49.33;98867.50;4922495;28;102391;-83
2021/07/08 01:39:24;;;;;;;;;2.00;2.00;;;;;25.56;49.33;98876.63;4914067;28;102476;-82
2021/07/08 01:41:52;;;;;;;;;3.00;3.00;;;;;25.54;49.38;98876.09;4922078;28;104140;-83
2021/07/08 01:44:19;;;;;;;;;2.33;2.33;;;;;25.55;49.06;98883.28;4927198;28;102649;-83
2021/07/08 01:46:46;;;;;;;;;2.00;2.00;;;;;25.53;49.27;98878.00;4908744;28;102207;-83
2021/07/08 01:49:13;;;;;;;;;2.67;2.00;;;;;25.54;49.29;98878.84;4917290;28;102453;-83
2021/07/08 01:51:41;;;;;;;;;3.00;3.00;;;;;25.52;49.07;98873.59;4921164;28;104551;-83
2021/07/08 01:54:08;;;;;;;;;4.00;3.33;;;;;25.52;49.03;98889.38;4907272;28;102497;-83
2021/07/08 01:56:38;;;;;;;;;3.00;2.00;;;;;25.52;48.94;98895.75;4915856;28;102406;-83
2021/07/08 01:59:05;;;;;;;;;2.00;2.00;;;;;25.51;48.94;98904.34;4924454;28;102584;-83
2021/07/08 02:01:32;;;;;;;;;2.00;2.00;;;;;25.51;49.23;98898.81;4892281;28;104109;-83
2021/07/08 02:04:00;;;;;;;;;2.00;2.00;;;;;25.50;48.97;98897.16;4908532;28;103494;-82
2021/07/08 02:06:27;;;;;;;;;4.67;3.00;;;;;25.50;49.13;98891.59;4926418;28;102407;-83
2021/07/08 02:08:54;;;;;;;;;3.00;3.00;;;;;25.49;48.69;98882.47;4915670;28;102455;-83
2021/07/08 02:11:21;;;;;;;;;3.33;2.67;;;;;25.49;48.61;98890.78;4913157;28;108879;-83
2021/07/08 02:13:48;;;;;;;;;3.33;3.00;;;;;25.49;48.74;98895.47;4919922;28;104120;-83
2021/07/08 02:16:16;;;;;;;;;4.00;3.33;;;;;25.48;48.73;98911.31;4914587;28;102694;-83
2021/07/08 02:18:43;;;;;;;;;3.00;3.00;;;;;25.46;48.61;98899.69;4905976;28;102201;-83
2021/07/08 02:21:11;;;;;;;;;2.67;2.33;;;;;25.45;48.76;98898.00;4925601;28;104151;-83
2021/07/08 02:23:38;;;;;;;;;2.67;2.67;;;;;25.44;48.66;98896.34;4912637;28;102503;-82
2021/07/08 02:26:06;;;;;;;;;4.33;3.33;;;;;25.44;48.66;98893.59;4907289;28;102191;-83
2021/07/08 02:28:34;;;;;;;;;3.00;3.00;;;;;25.44;48.78;98888.06;4919883;28;102167;-84
2021/07/08 02:31:01;;;;;;;;;3.00;3.00;;;;;25.40;48.70;98881.44;4898190;28;104295;-82
2021/07/08 02:33:28;;;;;;;;;3.00;3.00;;;;;25.42;48.54;98883.94;4907638;28;102799;-82
2021/07/08 02:35:56;;;;;;;;;4.00;4.00;;;;;25.41;48.24;98880.34;4928632;28;102472;-83
2021/07/08 02:38:23;;;;;;;;;3.33;3.00;;;;;25.41;48.44;98876.72;4925819;28;102406;-83
2021/07/08 02:40:50;;;;;;;;;4.00;2.67;;;;;25.40;48.40;98889.75;4907345;28;112194;-82
2021/07/08 02:43:17;;;;;;;;;3.67;3.67;;;;;25.39;48.34;98890.88;4932090;28;102556;-83
2021/07/08 02:45:44;;;;;;;;;3.00;3.00;;;;;25.39;48.29;98898.38;4921571;28;103184;-82
2021/07/08 02:48:14;;;;;;;;;3.00;3.00;;;;;25.39;48.14;98903.91;4919435;28;103346;-83
2021/07/08 02:50:41;;;;;;;;;4.00;3.00;;;;;25.37;48.22;98906.94;4925822;28;104343;-83
2021/07/08 02:53:09;;;;;;;;;2.67;2.67;;;;;25.38;48.34;98919.69;4921846;28;102518;-83
2021/07/08 02:55:36;;;;;;;;;4.00;3.00;;;;;25.37;48.40;98917.19;4899590;28;102511;-82
2021/07/08 02:58:04;;;;;;;;;2.00;2.00;;;;;25.37;48.34;98922.72;4914732;28;102238;-83
2021/07/08 03:00:31;;;;;;;;;4.33;4.33;;;;;25.36;48.18;98934.91;4918509;28;103648;-83
2021/07/08 03:02:58;;;;;;;;;2.67;2.67;;;;;25.35;48.28;98945.19;4921241;28;105151;-82
2021/07/08 03:05:26;;;;;;;;;2.67;2.67;;;;;25.35;48.26;98953.50;4914889;28;102599;-82
2021/07/08 03:07:54;;;;;;;;;3.33;2.67;;;;;25.36;48.11;98946.81;4921541;28;102402;-83
2021/07/08 03:10:23;;;;;;;;;2.67;2.67;;;;;25.35;48.17;98947.13;4911520;28;112158;-83
2021/07/08 03:12:50;;;;;;;;;3.00;3.00;;;;;25.33;48.19;98936.34;4922125;28;102517;-82
2021/07/08 03:15:17;;;;;;;;;3.33;3.33;;;;;25.33;47.93;98939.94;4918510;28;103406;-83
2021/07/08 03:17:45;;;;;;;;;3.00;3.00;;;;;25.32;48.19;98938.28;4912701;28;102380;-82
2021/07/08 03:20:20;;;;;;;;;2.33;2.33;;;;;25.32;48.11;98948.53;4913010;28;104043;-83
2021/07/08 03:22:47;;;;;;;;;2.33;2.00;;;;;25.31;47.82;98950.47;4911877;28;103473;-84
2021/07/08 03:25:15;;;;;;;;;2.00;2.00;;;;;25.32;47.97;98954.88;4906364;28;102593;-83
2021/07/08 03:27:43;;;;;;;;;2.67;2.67;;;;;25.31;47.81;98938.56;4911238;28;102802;-83
2021/07/08 03:30:12;;;;;;;;;2.33;2.33;;;;;25.31;47.92;98949.63;4924749;28;104064;-83
2021/07/08 03:32:40;;;;;;;;;3.67;3.00;;;;;25.32;47.75;98954.06;4913519;28;102209;-83
2021/07/08 03:35:08;;;;;;;;;3.00;3.00;;;;;25.31;47.83;98949.63;4913697;28;103635;-82
2021/07/08 03:37:35;;;;;;;;;2.00;2.00;;;;;25.30;47.58;98954.38;4924026;28;102555;-82
2021/07/08 03:40:04;;;;;;;;;3.33;3.33;;;;;25.29;47.69;98944.41;4912772;28;104250;-82
2021/07/08 03:42:31;;;;;;;;;3.00;3.00;;;;;25.30;47.64;98953.53;4910162;28;102718;-82
2021/07/08 03:44:58;;;;;;;;;3.00;2.67;;;;;25.24;47.71;98935.28;4931798;28;102137;-82
2021/07/08 03:47:25;;;;;;;;;3.00;3.00;;;;;25.30;47.81;98937.75;4914398;28;102282;-83
2021/07/08 03:49:52;;;;;;;;;3.00;2.00;;;;;25.31;47.91;98946.84;4910699;28;109064;-83
2021/07/08 03:52:19;;;;;;;;;3.00;3.00;;;;;25.29;47.82;98949.94;4931858;28;102479;-83
2021/07/08 03:54:46;;;;;;;;;2.67;2.67;;;;;25.28;47.86;98934.44;4911985;28;102319;-83
2021/07/08 03:57:14;;;;;;;;;3.67;3.00;;;;;25.31;47.92;98947.69;4914822;28;102457;-84
2021/07/08 03:59:41;;;;;;;;;4.00;3.00;;;;;25.30;47.74;98953.53;4928052;28;111360;-84
2021/07/08 04:02:08;;;;;;;;;2.00;1.33;;;;;25.29;47.67;98949.94;4922481;28;102155;-84
2021/07/08 04:04:38;;;;;;;;;2.00;2.00;;;;;25.30;47.93;98953.53;4918624;28;102608;-84
2021/07/08 04:07:05;;;;;;;;;3.00;3.00;;;;;25.30;47.71;98956.31;4905188;28;102262;-84
2021/07/08 04:09:33;;;;;;;;;3.00;3.00;;;;;25.28;47.83;98947.44;4930910;28;104084;-84
2021/07/08 04:12:00;;;;;;;;;3.33;3.33;;;;;25.31;47.56;98952.41;4906083;28;102425;-84
2021/07/08 04:14:27;;;;;;;;;3.00;3.00;;;;;25.30;47.58;98953.53;4916121;28;102639;-84
2021/07/08 04:16:54;;;;;;;;;3.00;3.00;;;;;25.31;47.76;98960.69;4929788;28;102479;-84
2021/07/08 04:19:22;;;;;;;;;2.00;2.00;;;;;25.31;47.67;98963.47;4905142;28;108977;-84
2021/07/08 04:21:49;;;;;;;;;3.00;2.33;;;;;25.28;47.45;98961.28;4916663;28;102402;-84
2021/07/08 04:24:16;;;;;;;;;3.00;3.00;;;;;25.28;47.19;98950.22;4930629;28;102731;-84
2021/07/08 04:26:43;;;;;;;;;4.00;3.00;;;;;25.26;47.20;98955.22;4912128;28;102488;-84
2021/07/08 04:29:10;;;;;;;;;3.00;3.00;;;;;25.27;47.28;98948.56;4909472;28;103896;-81
2021/07/08 04:31:38;;;;;;;;;2.00;2.00;;;;;25.26;47.09;98944.16;4927030;28;102000;-83
2021/07/08 04:34:05;;;;;;;;;2.00;2.00;;;;;25.26;47.15;98936.66;4913878;28;102536;-83
2021/07/08 04:36:32;;;;;;;;;3.00;3.00;;;;;25.25;47.45;98943.31;4920395;28;103650;-83
2021/07/08 04:38:59;;;;;;;;;2.00;2.00;;;;;25.25;46.97;98934.19;4923430;28;103989;-82
2021/07/08 04:41:27;;;;;;;;;2.33;2.33;;;;;25.27;47.21;98934.72;4913012;28;110824;-83
2021/07/08 04:43:54;;;;;;;;;3.33;2.33;;;;;25.25;47.21;98931.41;4921751;28;103509;-83
2021/07/08 04:46:23;;;;;;;;;3.33;3.33;;;;;25.25;47.25;98929.47;4923146;28;102602;-83
2021/07/08 04:48:51;;;;;;;;;3.00;3.00;;;;;25.23;47.39;98931.69;4911023;28;105209;-83
2021/07/08 04:51:18;;;;;;;;;3.00;2.33;;;;;25.24;47.41;98943.59;4898082;28;102181;-83
2021/07/08 04:53:45;;;;;;;;;1.67;1.67;;;;;25.25;47.15;98953.56;4917587;28;102552;-83
2021/07/08 04:56:12;;;;;;;;;2.00;1.00;;;;;25.23;47.09;98955.78;4916285;28;102903;-83
2021/07/08 04:58:39;;;;;;;;;3.00;2.33;;;;;25.25;47.15;98964.63;4912360;28;104271;-82
2021/07/08 05:01:06;;;;;;;;;2.00;2.00;;;;;25.26;47.36;98963.53;4924019;28;102191;-83
2021/07/08 05:03:34;;;;;;;;;3.00;2.00;;;;;25.25;47.15;98964.63;4913546;28;103702;-83
2021/07/08 05:06:01;;;;;;;;;2.00;2.00;;;;;25.26;47.21;98958.78;4923038;28;103215;-83
2021/07/08 05:08:28;;;;;;;;;2.33;2.00;;;;;25.25;47.17;98959.94;4928732;28;104478;-82
2021/07/08 05:10:55;;;;;;;;;3.00;3.00;;;;;25.26;47.27;98964.31;4924162;28;102839;-83
2021/07/08 05:13:22;;;;;;;;;1.67;1.00;;;;;25.25;47.13;98962.69;4913898;28;103319;-83
2021/07/08 05:15:49;;;;;;;;;3.00;3.00;;;;;25.28;47.13;98962.13;4920914;28;102489;-83
2021/07/08 05:18:17;;;;;;;;;3.00;3.00;;;;;25.27;47.13;98962.41;4923424;28;105935;-82
2021/07/08 05:20:44;;;;;;;;;2.00;1.67;;;;;25.27;47.05;98959.63;4919318;28;102870;-83
2021/07/08 05:23:16;;;;;;;;;3.00;3.00;;;;;25.26;47.11;98963.53;4927904;28;102505;-83
2021/07/08 05:25:46;;;;;;;;;3.33;3.33;;;;;25.26;47.03;98969.88;4917225;28;102427;-83
2021/07/08 05:28:16;;;;;;;;;3.00;3.00;;;;;25.27;47.19;98951.31;4904033;28;104283;-83
2021/07/08 05:30:43;;;;;;;;;2.00;2.00;;;;;25.27;47.21;98943.00;4916034;28;102555;-83
2021/07/08 05:33:11;;;;;;;;;3.67;3.00;;;;;25.26;47.19;98949.69;4928249;28;102367;-83
2021/07/08 05:35:38;;;;;;;;;2.67;2.67;;;;;25.27;46.86;98949.38;4912494;28;102583;-83
2021/07/08 05:38:08;;;;;;;;;4.00;3.00;;;;;25.27;47.13;98935.53;4925902;28;104140;-83
2021/07/08 05:40:35;;;;;;;;;2.67;2.00;;;;;25.28;47.23;98944.69;4915991;28;102418;-83
2021/07/08 05:43:04;;;;;;;;;2.33;2.00;;;;;25.29;47.32;98946.34;4902798;28;107552;-82
2021/07/08 05:45:32;;;;;;;;;1.00;1.00;;;;;25.27;47.29;98945.78;4922512;28;102804;-83
2021/07/08 05:47:59;;;;;;;;;2.00;2.00;;;;;25.28;47.09;98928.06;4909639;28;104091;-83
2021/07/08 05:50:26;;;;;;;;;2.00;2.00;;;;;25.27;46.97;98916.16;4910174;28;102436;-83
2021/07/08 05:52:54;;;;;;;;;2.67;2.33;;;;;25.28;47.31;98922.53;4913053;28;102495;-83
2021/07/08 05:55:21;;;;;;;;;2.00;1.33;;;;;25.28;47.57;98942.75;4923055;28;102150;-83
2021/07/08 05:57:52;;;;;;;;;3.00;3.00;;;;;25.29;47.21;98940.81;4929279;28;104238;-83
2021/07/08 06:00:20;;;;;;;;;2.00;1.67;;;;;25.28;47.44;98939.13;4906466;28;102172;-83
2021/07/08 06:02:47;;;;;;;;;2.00;2.00;;;;;25.28;47.26;98934.44;4920583;28;102605;-83
2021/07/08 06:05:15;;;;;;;;;2.00;2.00;;;;;25.29;47.50;98930.56;4904545;28;107443;-83
2021/07/08 06:07:42;;;;;;;;;1.67;1.67;;;;;25.28;47.22;98923.34;4910791;28;106004;-84
2021/07/08 06:10:10;;;;;;;;;4.00;3.00;;;;;25.29;47.43;98936.09;4908125;28;102570;-84
2021/07/08 06:12:38;;;;;;;;;2.67;2.67;;;;;25.29;47.48;98926.97;4915962;28;103572;-84
2021/07/08 06:15:06;;;;;;;;;2.67;2.67;;;;;25.30;47.53;98929.44;4913292;28;104028;-84
2021/07/08 06:17:33;;;;;;;;;3.33;3.33;;;;;25.28;47.42;98922.53;4927741;28;104370;-84
2021/07/08 06:20:01;;;;;;;;;3.33;2.00;;;;;25.30;47.98;98920.31;4928494;28;102431;-83
2021/07/08 06:22:28;;;;;;;;;3.67;2.00;;;;;25.30;47.59;98904.53;4911645;28;103434;-84
2021/07/08 06:24:56;;;;;;;;;2.00;2.00;;;;;25.32;47.50;98912.53;4923654;28;102991;-83
2021/07/08 06:27:23;;;;;;;;;2.00;2.00;;;;;25.32;47.51;98918.06;4919951;28;110251;-84
2021/07/08 06:29:50;;;;;;;;;2.33;2.33;;;;;25.31;47.58;98916.41;4917004;28;102224;-84
2021/07/08 06:32:18;;;;;;;;;2.00;2.00;;;;;25.32;47.63;98923.59;4935045;28;102538;-84
2021/07/08 06:34:46;;;;;;;;;1.33;1.33;;;;;25.33;47.65;98937.16;4931963;28;102507;-84
2021/07/08 06:37:13;;;;;;;;;3.00;3.00;;;;;25.34;47.52;98935.22;4912872;28;104024;-84
2021/07/08 06:39:41;;;;;;;;;1.00;1.00;;;;;25.34;47.78;98924.16;4923986;28;103475;-84
2021/07/08 06:42:08;;;;;;;;;2.00;2.00;;;;;25.35;47.53;98924.97;4920755;28;102149;-84
2021/07/08 06:44:35;;;;;;;;;3.00;2.00;;;;;25.34;47.81;98926.91;4909938;28;102630;-83
2021/07/08 06:47:03;;;;;;;;;2.00;2.00;;;;;25.33;47.54;98926.09;4916344;28;104216;-82
2021/07/08 06:49:30;;;;;;;;;2.67;2.00;;;;;25.34;47.73;98921.38;4929476;28;102519;-82
2021/07/08 06:51:58;;;;;;;;;2.33;2.33;;;;;25.36;48.05;98929.38;4918784;28;102900;-83
2021/07/08 06:54:25;;;;;;;;;2.00;2.00;;;;;25.36;47.76;98923.84;4920170;28;102166;-83
2021/07/08 06:56:52;;;;;;;;;2.67;2.67;;;;;25.36;47.91;98929.38;4922544;28;104177;-83
2021/07/08 06:59:19;;;;;;;;;2.00;1.33;;;;;25.35;47.68;98922.22;4908359;28;102512;-83
2021/07/08 07:01:46;;;;;;;;;2.67;2.33;;;;;25.36;47.94;98921.06;4917396;28;102490;-84
2021/07/08 07:04:14;;;;;;;;;2.33;2.33;;;;;25.36;47.73;98913.59;4924960;28;102173;-84
2021/07/08 07:06:41;;;;;;;;;3.00;3.00;;;;;25.36;47.88;98918.31;4915704;28;103820;-83
2021/07/08 07:09:08;;;;;;;;;2.00;2.00;;;;;25.36;47.84;98915.53;4917482;28;102366;-82
2021/07/08 07:11:35;;;;;;;;;3.00;3.00;;;;;25.32;47.95;98921.66;4924383;28;102484;-83
2021/07/08 07:14:02;;;;;;;;;3.00;3.00;;;;;25.36;47.79;98918.31;4916552;28;102753;-83
2021/07/08 07:16:29;;;;;;;;;1.33;1.33;;;;;25.37;48.10;98925.50;4917751;28;104542;-84
2021/07/08 07:18:57;;;;;;;;;2.00;2.00;;;;;25.38;47.87;98916.09;4930766;28;102460;-83
2021/07/08 07:21:24;;;;;;;;;2.00;1.67;;;;;25.38;48.02;98922.47;4913948;28;102568;-83
2021/07/08 07:23:51;;;;;;;;;2.00;2.00;;;;;25.39;47.83;98926.06;4912746;28;102680;-84
2021/07/08 07:26:21;;;;;;;;;2.00;2.00;;;;;25.38;48.03;98919.69;4923878;28;104090;-84
2021/07/08 07:28:48;;;;;;;;;2.00;1.00;;;;;25.19;48.10;98888.28;4906258;28;102635;-84
2021/07/08 07:31:16;;;;;;;;;1.33;1.33;;;;;25.39;48.11;98914.97;4897607;28;102552;-84
2021/07/08 07:33:43;;;;;;;;;3.33;3.33;;;;;25.40;47.88;98905.56;4936249;28;102549;-84
2021/07/08 07:36:10;;;;;;;;;2.00;2.00;;;;;25.41;47.86;98909.97;4920885;28;103172;-84
2021/07/08 07:38:41;;;;;;;;;1.00;1.00;;;;;25.40;47.84;98906.38;4920513;28;102458;-84
2021/07/08 07:41:08;;;;;;;;;2.67;2.67;;;;;25.40;48.02;98900.81;4910490;28;102417;-84
2021/07/08 07:43:35;;;;;;;;;2.67;2.67;;;;;25.41;47.87;98891.41;4914841;28;102711;-84
2021/07/08 07:46:02;;;;;;;;;5.33;2.33;;;;;25.41;48.13;98896.94;4918482;28;104141;-84
2021/07/08 07:48:30;;;;;;;;;2.00;2.00;;;;;25.42;47.95;98889.47;4911759;28;111354;-83
2021/07/08 07:50:57;;;;;;;;;2.67;2.33;;;;;25.27;48.07;98865.50;4918688;28;103681;-83
2021/07/08 07:53:24;;;;;;;;;1.00;1.00;;;;;25.42;47.96;98890.31;4913739;28;104345;-83
2021/07/08 07:55:51;;;;;;;;;2.33;2.33;;;;;25.44;48.10;98881.72;4933613;28;104149;-83
2021/07/08 07:58:18;;;;;;;;;1.67;1.00;;;;;25.43;48.00;98872.56;4917864;28;102652;-83
2021/07/08 08:00:47;;;;;;;;;1.33;1.33;;;;;25.44;47.88;98871.44;4915797;28;104338;-83
2021/07/08 08:03:14;;;;;;;;;2.00;2.00;;;;;25.44;48.14;98879.75;4924127;28;103961;-83
2021/07/08 08:05:54;;;;;;;;;2.33;2.00;;;;;25.45;48.12;98878.63;4916793;28;104049;-84
2021/07/08 08:08:27;;;;;;;;;2.00;2.00;;;;;25.46;48.09;98873.94;4913941;28;102456;-82
2021/07/08 08:10:55;;;;;;;;;3.00;3.00;;;;;25.46;48.27;98880.28;4918859;28;101992;-83
2021/07/08 08:13:22;;;;;;;;;2.00;2.00;;;;;25.46;48.05;98880.28;4924860;28;103095;-83
2021/07/08 08:15:51;;;;;;;;;2.33;2.33;;;;;25.47;48.23;98859.78;4913818;28;104074;-83
2021/07/08 08:18:19;;;;;;;;;3.00;2.00;;;;;25.47;48.11;98865.34;4918895;28;102476;-83
2021/07/08 08:20:47;;;;;;;;;3.00;2.67;;;;;25.48;47.95;98861.47;4914559;28;102242;-84
2021/07/08 08:23:14;;;;;;;;;3.00;2.00;;;;;25.48;48.34;98864.22;4911639;28;102202;-84
2021/07/08 08:25:42;;;;;;;;;2.67;2.00;;;;;25.49;48.06;98862.25;4905971;28;104073;-84
2021/07/08 08:28:09;;;;;;;;;1.67;1.67;;;;;25.50;48.23;98861.16;4918242;28;102064;-84
2021/07/08 08:30:36;;;;;;;;;2.00;2.00;;;;;25.50;47.98;98861.16;4912115;28;104818;-84
2021/07/08 08:33:04;;;;;;;;;3.00;3.00;;;;;25.50;48.29;98863.91;4916500;28;103569;-84
2021/07/08 08:35:33;;;;;;;;;2.00;2.00;;;;;25.50;48.32;98875.81;4932253;28;104368;-84
2021/07/08 08:38:00;;;;;;;;;3.00;3.00;;;;;25.51;48.26;98865.56;4919148;28;102213;-83
2021/07/08 08:40:27;;;;;;;;;2.00;2.00;;;;;25.51;48.29;98865.56;4911170;28;104102;-84
2021/07/08 08:42:54;;;;;;;;;1.67;1.67;;;;;25.52;48.29;98864.47;4921809;28;102544;-84
2021/07/08 08:45:22;;;;;;;;;2.33;2.33;;;;;25.51;48.08;98869.16;4914896;28;104077;-84
2021/07/08 08:48:03;;;;;;;;;2.00;2.00;;;;;25.51;48.13;98855.31;4912617;28;102110;-84
2021/07/08 08:50:35;;;;;;;;;2.00;2.00;;;;;25.53;48.11;98853.06;4920182;28;102729;-84
2021/07/08 08:53:04;;;;;;;;;3.00;3.00;;;;;25.52;48.38;98843.13;4920930;28;102532;-83
2021/07/08 08:55:34;;;;;;;;;2.00;2.00;;;;;25.54;48.13;98848.41;4916009;28;104058;-84
2021/07/08 08:58:03;;;;;;;;;1.67;1.00;;;;;25.54;48.35;98840.09;4925897;28;102468;-84
2021/07/08 09:00:30;;;;;;;;;2.33;2.33;;;;;25.55;48.39;98833.44;4919527;28;102149;-84
2021/07/08 09:03:01;;;;;;;;;2.00;1.00;;;;;25.55;48.23;98834.25;4907399;28;102555;-84
2021/07/08 09:05:28;;;;;;;;;2.00;2.00;;;;;25.56;48.38;98835.94;4905411;28;109174;-84
2021/07/08 09:08:14;;;;;;;;;3.00;3.00;;;;;25.56;48.20;98841.47;4932364;28;101919;-82
2021/07/08 09:11:01;;;;;;;;;3.00;2.00;;;;;25.58;48.43;98838.38;4867107;28;102193;-83
2021/07/08 09:13:43;;;;;;;;;2.00;2.00;;;;;25.58;48.49;98830.06;4913808;28;103599;-84
2021/07/08 09:16:14;;;;;;;;;1.33;1.33;;;;;25.58;48.42;98828.13;4836369;28;109122;-82
2021/07/08 09:18:42;;;;;;;;;2.00;2.00;;;;;25.59;48.27;98824.25;4921126;28;102441;-82
2021/07/08 09:21:16;;;;;;;;;2.00;2.00;;;;;25.60;48.33;98825.09;4914298;28;102819;-83
2021/07/08 09:24:09;;;;;;;;;2.00;2.00;;;;;25.61;48.58;98822.03;4908738;28;102330;-83
2021/07/08 09:26:37;;;;;;;;;2.00;2.00;;;;;25.59;48.22;98821.47;4925636;28;108945;-83
2021/07/08 09:29:07;;;;;;;;;4.00;3.33;;;;;25.60;48.37;98814.84;4919672;28;103174;-83
2021/07/08 09:31:35;;;;;;;;;1.67;1.67;;;;;25.63;48.40;98822.53;4910786;28;102432;-83
2021/07/08 09:34:19;;;;;;;;;2.00;2.00;;;;;25.64;48.29;98826.16;4926576;28;102667;-82
2021/07/08 09:36:48;;;;;;;;;1.67;1.67;;;;;25.65;48.44;98820.31;4873214;28;106757;-83
2021/07/08 09:39:16;;;;;;;;;2.00;2.00;;;;;25.65;48.29;98816.72;4908680;28;103291;-83
2021/07/08 09:41:50;;;;;;;;;1.33;1.33;;;;;25.66;48.26;98816.44;4915525;28;102572;-83
2021/07/08 09:44:26;;;;;;;;;2.00;2.00;;;;;25.68;48.34;98818.88;4922115;28;103623;-83
2021/07/08 09:46:54;;;;;;;;;2.00;2.00;;;;;25.68;48.48;98818.88;4909008;28;104350;-83
2021/07/08 09:49:22;;;;;;;;;1.00;1.00;;;;;25.69;48.33;98810.28;4901391;28;102395;-83
2021/07/08 09:51:50;;;;;;;;;1.67;1.67;;;;;25.70;48.40;98802.81;4924790;28;102645;-83
2021/07/08 09:57:40;;;;;;;;;2.67;2.67;;;;;25.72;48.49;98806.94;4841118;28;109741;-84
2021/07/08 10:00:22;;;;;;;;;1.00;1.00;;;;;25.72;48.34;98804.16;4915480;28;102640;-84
2021/07/08 10:02:50;;;;;;;;;3.00;2.00;;;;;25.72;48.30;98806.94;4922332;28;102203;-83
2021/07/08 10:05:18;;;;;;;;;1.67;1.67;;;;;25.73;48.50;98797.50;4916827;28;102122;-83
2021/07/08 10:07:45;;;;;;;;;2.00;1.00;;;;;25.74;48.35;98804.69;4901142;28;104220;-83
2021/07/08 10:10:14;;;;;;;;;2.00;2.00;;;;;25.77;48.51;98798.56;4933974;28;101974;-83
2021/07/08 10:12:42;;;;;;;;;2.33;1.00;;;;;25.76;48.29;98802.44;4906875;28;102656;-83
2021/07/08 10:15:11;;;;;;;;;1.33;1.33;;;;;25.76;48.35;98791.38;4906370;28;102355;-84
2021/07/08 10:17:39;;;;;;;;;4.00;2.67;;;;;25.79;48.36;98794.69;4899750;28;105106;-84
2021/07/08 10:20:09;;;;;;;;;1.33;1.33;;;;;25.80;48.38;98790.78;4915222;28;102590;-84
2021/07/08 10:22:37;;;;;;;;;3.00;2.00;;;;;25.80;48.24;98791.63;4907671;28;102546;-83
2021/07/08 10:25:05;;;;;;;;;2.67;2.00;;;;;25.81;48.26;98778.56;4900536;28;107158;-83
2021/07/08 10:27:32;;;;;;;;;2.00;2.00;;;;;25.80;48.40;98780.53;4921862;28;104309;-84
2021/07/08 10:30:00;;;;;;;;;2.00;2.00;;;;;25.80;48.47;98779.72;4889282;28;102673;-84
2021/07/08 10:32:27;;;;;;;;;1.67;1.67;;;;;25.81;48.38;98784.09;4907816;28;102643;-84
2021/07/08 10:34:54;;;;;;;;;2.33;2.33;;;;;25.81;48.33;98784.09;4902530;28;103415;-83
2021/07/08 10:37:43;;;;;;;;;1.33;1.33;;;;;25.81;48.57;98781.34;4912666;28;104315;-83
2021/07/08 10:40:40;;;;;;;;;2.00;2.00;;;;;25.81;48.53;98776.63;4849764;28;103507;-84
2021/07/08 10:43:12;;;;;;;;;2.33;2.33;;;;;25.81;48.40;98775.81;4909449;28;103706;-83
2021/07/08 10:45:43;;;;;;;;;2.00;2.00;;;;;25.81;48.39;98773.03;4927112;28;103644;-83
2021/07/08 10:48:15;;;;;;;;;2.00;2.00;;;;;25.81;48.41;98773.03;4904919;28;104127;-83
2021/07/08 10:50:49;;;;;;;;;2.00;2.00;;;;;25.82;48.33;98771.91;4914565;28;102437;-83
2021/07/08 10:53:24;;;;;;;;;2.00;2.00;;;;;25.82;48.45;98777.47;4908405;28;101985;-84
2021/07/08 10:55:56;;;;;;;;;2.00;2.00;;;;;25.82;48.53;98760.84;4918354;28;102600;-83
2021/07/08 10:58:37;;;;;;;;;1.00;1.00;;;;;25.83;48.37;98762.50;4921561;28;103812;-83
2021/07/08 11:01:06;;;;;;;;;3.00;2.00;;;;;25.82;48.54;98758.88;4922340;28;103951;-83
2021/07/08 11:03:39;;;;;;;;;2.00;2.00;;;;;25.84;48.49;98753.06;4916961;28;102622;-82
2021/07/08 11:06:23;;;;;;;;;2.00;2.00;;;;;25.84;48.44;98747.53;4916153;28;102573;-82
2021/07/08 11:09:01;;;;;;;;;2.33;2.33;;;;;25.83;48.47;98745.88;4908066;28;103898;-83
2021/07/08 11:11:28;;;;;;;;;2.00;2.00;;;;;25.84;48.52;98748.34;4914040;28;102668;-82
2021/07/08 11:14:16;;;;;;;;;1.33;1.33;;;;;25.84;48.48;98728.13;4916554;28;102439;-83
2021/07/08 11:17:01;;;;;;;;;2.00;2.00;;;;;25.86;48.65;98734.19;4842020;28;103070;-82
2021/07/08 11:19:29;;;;;;;;;3.00;3.00;;;;;25.85;48.54;98730.59;4924295;28;104843;-83
2021/07/08 11:22:09;;;;;;;;;2.33;2.00;;;;;25.85;48.25;98735.31;4931406;28;102177;-83
2021/07/08 11:24:47;;;;;;;;;1.33;1.33;;;;;25.88;48.35;98738.31;4850895;28;102938;-82
2021/07/08 11:27:23;;;;;;;;;2.00;2.00;;;;;25.89;48.52;98744.69;4917547;28;102486;-82
2021/07/08 11:29:51;;;;;;;;;2.00;2.00;;;;;25.89;48.67;98744.69;4918726;28;103406;-83
2021/07/08 11:32:18;;;;;;;;;2.00;2.00;;;;;25.91;48.55;98736.88;4914120;28;102729;-84
2021/07/08 11:35:06;;;;;;;;;1.67;1.67;;;;;25.92;48.49;98733.00;4916267;28;102919;-84